sensor_id;sensor_type;location;lat;lon;timestamp;temperature;humidity
56298;DHT22;42208;6.376;-10.782;2022-08-01T00:00:18;26.10;99.90
56298;DHT22;42208;6.376;-10.782;2022-08-01T00:02:47;26.10;99.90
56298;DHT22;42208;6.376;-10.782;2022-08-01T00:05:15;26.10;99.90
56298;DHT22;42208;6.376;-10.782;2022-08-01T00:07:44;26.20;99.90
56298;DHT22;42208;6.376;-10.782;2022-08-01T00:10:14;26.20;99.90
56298;DHT22;42208;6.376;-10.782;2022-08-01T00:12:43;26.20;99.90
56298;DHT22;42208;6.376;-10.782;2022-08-01T00:15:14;26.20;99.90
56298;DHT22;42208;6.376;-10.782;2022-08-01T00:17:43;26.20;99.90
56298;DHT22;42208;6.376;-10.782;2022-08-01T00:20:13;26.20;99.90
56298;DHT22;42208;6.376;-10.782;2022-08-01T00:22:42;26.20;99.90
56298;DHT22;42208;6.376;-10.782;2022-08-01T00:25:10;26.20;99.90
56298;DHT22;42208;6.376;-10.782;2022-08-01T00:27:38;26.20;99.90
56298;DHT22;42208;6.376;-10.782;2022-08-01T00:30:07;26.20;99.90
56298;DHT22;42208;6.376;-10.782;2022-08-01T00:32:42;26.20;99.90
56298;DHT22;42208;6.376;-10.782;2022-08-01T00:35:10;26.20;99.90
56298;DHT22;42208;6.376;-10.782;2022-08-01T00:37:39;26.20;99.90
56298;DHT22;42208;6.376;-10.782;2022-08-01T00:40:08;26.20;99.90
56298;DHT22;42208;6.376;-10.782;2022-08-01T00:42:36;26.20;99.90
56298;DHT22;42208;6.376;-10.782;2022-08-01T00:45:10;26.20;99.90
56298;DHT22;42208;6.376;-10.782;2022-08-01T00:47:39;26.20;99.90
56298;DHT22;42208;6.376;-10.782;2022-08-01T00:50:08;26.20;99.90
56298;DHT22;42208;6.376;-10.782;2022-08-01T00:52:37;26.20;99.90
56298;DHT22;42208;6.376;-10.782;2022-08-01T00:55:07;26.20;99.90
56298;DHT22;42208;6.376;-10.782;2022-08-01T00:57:41;26.20;99.90
56298;DHT22;42208;6.376;-10.782;2022-08-01T01:00:30;26.20;99.90
56298;DHT22;42208;6.376;-10.782;2022-08-01T01:03:01;26.20;99.90
56298;DHT22;42208;6.376;-10.782;2022-08-01T01:05:35;26.20;99.90
56298;DHT22;42208;6.376;-10.782;2022-08-01T01:08:08;26.20;99.90
56298;DHT22;42208;6.376;-10.782;2022-08-01T01:11:21;26.20;99.90
56298;DHT22;42208;6.376;-10.782;2022-08-01T01:14:06;26.10;99.90
56298;DHT22;42208;6.376;-10.782;2022-08-01T01:16:38;26.10;99.90
56298;DHT22;42208;6.376;-10.782;2022-08-01T01:19:13;26.10;99.90
56298;DHT22;42208;6.376;-10.782;2022-08-01T01:22:15;26.10;99.90
56298;DHT22;42208;6.376;-10.782;2022-08-01T01:25:14;26.10;99.90
56298;DHT22;42208;6.376;-10.782;2022-08-01T01:28:01;26.10;99.90
56298;DHT22;42208;6.376;-10.782;2022-08-01T01:30:31;26.10;99.90
56298;DHT22;42208;6.376;-10.782;2022-08-01T01:33:02;26.10;99.90
56298;DHT22;42208;6.376;-10.782;2022-08-01T01:35:38;26.10;99.90
56298;DHT22;42208;6.376;-10.782;2022-08-01T01:38:28;26.10;99.90
56298;DHT22;42208;6.376;-10.782;2022-08-01T01:40:57;26.10;99.90
56298;DHT22;42208;6.376;-10.782;2022-08-01T01:43:28;26.00;99.90
56298;DHT22;42208;6.376;-10.782;2022-08-01T01:46:01;26.00;99.90
56298;DHT22;42208;6.376;-10.782;2022-08-01T01:48:31;26.10;99.90
56298;DHT22;42208;6.376;-10.782;2022-08-01T01:51:00;26.00;99.90
56298;DHT22;42208;6.376;-10.782;2022-08-01T01:53:33;26.10;99.90
56298;DHT22;42208;6.376;-10.782;2022-08-01T01:56:02;26.00;99.90
56298;DHT22;42208;6.376;-10.782;2022-08-01T01:58:33;26.10;99.90
56298;DHT22;42208;6.376;-10.782;2022-08-01T02:01:02;26.00;99.90
56298;DHT22;42208;6.376;-10.782;2022-08-01T02:03:43;26.00;99.90
56298;DHT22;42208;6.376;-10.782;2022-08-01T02:06:13;26.00;99.90
56298;DHT22;42208;6.376;-10.782;2022-08-01T02:08:44;26.00;99.90
56298;DHT22;42208;6.376;-10.782;2022-08-01T02:11:13;26.00;99.90
56298;DHT22;42208;6.376;-10.782;2022-08-01T02:13:42;26.00;99.90
56298;DHT22;42208;6.376;-10.782;2022-08-01T02:16:11;26.00;99.90
56298;DHT22;42208;6.376;-10.782;2022-08-01T02:18:41;26.10;99.90
56298;DHT22;42208;6.376;-10.782;2022-08-01T02:21:13;26.10;99.90
56298;DHT22;42208;6.376;-10.782;2022-08-01T02:23:44;26.00;99.90
56298;DHT22;42208;6.376;-10.782;2022-08-01T02:26:14;26.00;99.90
56298;DHT22;42208;6.376;-10.782;2022-08-01T02:28:49;26.00;99.90
56298;DHT22;42208;6.376;-10.782;2022-08-01T02:31:21;26.10;99.90
56298;DHT22;42208;6.376;-10.782;2022-08-01T02:33:55;26.00;99.90
56298;DHT22;42208;6.376;-10.782;2022-08-01T02:36:26;26.00;99.90
56298;DHT22;42208;6.376;-10.782;2022-08-01T02:39:08;26.00;99.90
56298;DHT22;42208;6.376;-10.782;2022-08-01T02:41:43;26.00;99.90
56298;DHT22;42208;6.376;-10.782;2022-08-01T02:44:21;26.00;99.90
56298;DHT22;42208;6.376;-10.782;2022-08-01T02:46:54;26.00;99.90
56298;DHT22;42208;6.376;-10.782;2022-08-01T02:49:25;26.00;99.90
56298;DHT22;42208;6.376;-10.782;2022-08-01T02:51:55;26.00;99.90
56298;DHT22;42208;6.376;-10.782;2022-08-01T02:54:25;26.00;99.90
56298;DHT22;42208;6.376;-10.782;2022-08-01T02:57:03;25.90;99.90
56298;DHT22;42208;6.376;-10.782;2022-08-01T02:59:35;25.90;99.90
56298;DHT22;42208;6.376;-10.782;2022-08-01T03:02:08;26.00;99.90
56298;DHT22;42208;6.376;-10.782;2022-08-01T03:04:40;25.90;99.90
56298;DHT22;42208;6.376;-10.782;2022-08-01T03:07:11;26.00;99.90
56298;DHT22;42208;6.376;-10.782;2022-08-01T03:09:43;25.90;99.90
56298;DHT22;42208;6.376;-10.782;2022-08-01T03:12:17;25.80;99.90
56298;DHT22;42208;6.376;-10.782;2022-08-01T03:14:48;25.70;99.90
56298;DHT22;42208;6.376;-10.782;2022-08-01T03:17:19;25.60;99.90
56298;DHT22;42208;6.376;-10.782;2022-08-01T03:19:49;25.60;99.90
56298;DHT22;42208;6.376;-10.782;2022-08-01T03:22:19;25.50;99.90
56298;DHT22;42208;6.376;-10.782;2022-08-01T03:24:52;25.50;99.90
56298;DHT22;42208;6.376;-10.782;2022-08-01T03:27:22;25.40;99.90
56298;DHT22;42208;6.376;-10.782;2022-08-01T03:29:54;25.40;99.90
56298;DHT22;42208;6.376;-10.782;2022-08-01T03:32:24;25.30;99.90
56298;DHT22;42208;6.376;-10.782;2022-08-01T03:34:54;25.30;99.90
56298;DHT22;42208;6.376;-10.782;2022-08-01T03:37:38;25.30;99.90
56298;DHT22;42208;6.376;-10.782;2022-08-01T03:40:34;25.20;99.90
56298;DHT22;42208;6.376;-10.782;2022-08-01T03:43:07;25.20;99.90
56298;DHT22;42208;6.376;-10.782;2022-08-01T03:45:36;25.10;99.90
56298;DHT22;42208;6.376;-10.782;2022-08-01T03:48:14;25.10;99.90
56298;DHT22;42208;6.376;-10.782;2022-08-01T03:50:47;25.00;99.90
56298;DHT22;42208;6.376;-10.782;2022-08-01T03:53:22;25.00;99.90
56298;DHT22;42208;6.376;-10.782;2022-08-01T03:55:53;25.00;99.90
56298;DHT22;42208;6.376;-10.782;2022-08-01T03:58:22;24.90;99.90
56298;DHT22;42208;6.376;-10.782;2022-08-01T04:00:50;24.90;99.90
56298;DHT22;42208;6.376;-10.782;2022-08-01T04:03:19;24.80;99.90
56298;DHT22;42208;6.376;-10.782;2022-08-01T04:05:47;24.80;99.90
56298;DHT22;42208;6.376;-10.782;2022-08-01T04:08:16;24.80;99.90
56298;DHT22;42208;6.376;-10.782;2022-08-01T04:10:44;24.80;99.90
56298;DHT22;42208;6.376;-10.782;2022-08-01T04:13:16;24.80;99.90
56298;DHT22;42208;6.376;-10.782;2022-08-01T04:15:45;24.80;99.90
56298;DHT22;42208;6.376;-10.782;2022-08-01T04:18:13;24.80;99.90
56298;DHT22;42208;6.376;-10.782;2022-08-01T04:20:41;24.80;99.90
56298;DHT22;42208;6.376;-10.782;2022-08-01T04:23:10;24.80;99.90
56298;DHT22;42208;6.376;-10.782;2022-08-01T04:25:40;24.80;99.90
56298;DHT22;42208;6.376;-10.782;2022-08-01T04:28:10;24.80;99.90
56298;DHT22;42208;6.376;-10.782;2022-08-01T04:30:40;24.70;99.90
56298;DHT22;42208;6.376;-10.782;2022-08-01T04:33:10;24.70;99.90
56298;DHT22;42208;6.376;-10.782;2022-08-01T04:35:43;24.70;99.90
56298;DHT22;42208;6.376;-10.782;2022-08-01T04:38:33;24.70;99.90
56298;DHT22;42208;6.376;-10.782;2022-08-01T04:41:02;24.60;99.90
56298;DHT22;42208;6.376;-10.782;2022-08-01T04:43:39;24.70;99.90
56298;DHT22;42208;6.376;-10.782;2022-08-01T04:46:11;24.70;99.90
56298;DHT22;42208;6.376;-10.782;2022-08-01T04:48:41;24.70;99.90
56298;DHT22;42208;6.376;-10.782;2022-08-01T04:51:17;24.70;99.90
56298;DHT22;42208;6.376;-10.782;2022-08-01T04:53:45;24.70;99.90
56298;DHT22;42208;6.376;-10.782;2022-08-01T04:56:14;24.60;99.90
56298;DHT22;42208;6.376;-10.782;2022-08-01T04:58:43;24.60;99.90
56298;DHT22;42208;6.376;-10.782;2022-08-01T05:01:11;24.60;99.90
56298;DHT22;42208;6.376;-10.782;2022-08-01T05:03:40;24.60;99.90
56298;DHT22;42208;6.376;-10.782;2022-08-01T05:06:08;24.50;99.90
56298;DHT22;42208;6.376;-10.782;2022-08-01T05:08:36;24.50;99.90
56298;DHT22;42208;6.376;-10.782;2022-08-01T05:11:05;24.50;99.90
56298;DHT22;42208;6.376;-10.782;2022-08-01T05:13:33;24.40;99.90
56298;DHT22;42208;6.376;-10.782;2022-08-01T05:16:01;24.40;99.90
56298;DHT22;42208;6.376;-10.782;2022-08-01T05:18:29;24.40;99.90
56298;DHT22;42208;6.376;-10.782;2022-08-01T05:20:59;24.40;99.90
56298;DHT22;42208;6.376;-10.782;2022-08-01T05:23:27;24.40;99.90
56298;DHT22;42208;6.376;-10.782;2022-08-01T05:26:10;24.50;99.90
56298;DHT22;42208;6.376;-10.782;2022-08-01T05:28:41;24.40;99.90
56298;DHT22;42208;6.376;-10.782;2022-08-01T05:31:10;24.40;99.90
56298;DHT22;42208;6.376;-10.782;2022-08-01T05:33:38;24.40;99.90
56298;DHT22;42208;6.376;-10.782;2022-08-01T05:36:06;24.30;99.90
56298;DHT22;42208;6.376;-10.782;2022-08-01T05:38:35;24.40;99.90
56298;DHT22;42208;6.376;-10.782;2022-08-01T05:41:03;24.30;99.90
56298;DHT22;42208;6.376;-10.782;2022-08-01T05:43:31;24.30;99.90
56298;DHT22;42208;6.376;-10.782;2022-08-01T05:46:00;24.30;99.90
56298;DHT22;42208;6.376;-10.782;2022-08-01T05:48:28;24.30;99.90
56298;DHT22;42208;6.376;-10.782;2022-08-01T05:50:56;24.30;99.90
56298;DHT22;42208;6.376;-10.782;2022-08-01T05:53:25;24.40;99.90
56298;DHT22;42208;6.376;-10.782;2022-08-01T05:55:54;24.30;99.90
56298;DHT22;42208;6.376;-10.782;2022-08-01T05:58:22;24.30;99.90
56298;DHT22;42208;6.376;-10.782;2022-08-01T06:00:51;24.10;99.90
56298;DHT22;42208;6.376;-10.782;2022-08-01T06:03:19;24.00;99.90
56298;DHT22;42208;6.376;-10.782;2022-08-01T06:05:47;24.00;99.90
56298;DHT22;42208;6.376;-10.782;2022-08-01T06:08:15;24.00;99.90
56298;DHT22;42208;6.376;-10.782;2022-08-01T06:10:44;24.00;99.90
56298;DHT22;42208;6.376;-10.782;2022-08-01T06:13:12;24.00;99.90
56298;DHT22;42208;6.376;-10.782;2022-08-01T06:15:40;24.00;99.90
56298;DHT22;42208;6.376;-10.782;2022-08-01T06:18:08;24.00;99.90
56298;DHT22;42208;6.376;-10.782;2022-08-01T06:20:37;24.00;99.90
56298;DHT22;42208;6.376;-10.782;2022-08-01T06:23:05;24.10;99.90
56298;DHT22;42208;6.376;-10.782;2022-08-01T06:25:54;24.20;99.90
56298;DHT22;42208;6.376;-10.782;2022-08-01T06:28:22;24.20;99.90
56298;DHT22;42208;6.376;-10.782;2022-08-01T06:30:50;24.20;99.90
56298;DHT22;42208;6.376;-10.782;2022-08-01T06:33:19;24.20;99.90
56298;DHT22;42208;6.376;-10.782;2022-08-01T06:35:47;24.20;99.90
56298;DHT22;42208;6.376;-10.782;2022-08-01T06:38:15;24.20;99.90
56298;DHT22;42208;6.376;-10.782;2022-08-01T06:40:43;24.20;99.90
56298;DHT22;42208;6.376;-10.782;2022-08-01T06:43:12;24.20;99.90
56298;DHT22;42208;6.376;-10.782;2022-08-01T06:45:40;24.20;99.90
56298;DHT22;42208;6.376;-10.782;2022-08-01T06:48:08;24.20;99.90
56298;DHT22;42208;6.376;-10.782;2022-08-01T06:50:37;24.10;99.90
56298;DHT22;42208;6.376;-10.782;2022-08-01T06:53:05;24.10;99.90
56298;DHT22;42208;6.376;-10.782;2022-08-01T06:55:34;24.10;99.90
56298;DHT22;42208;6.376;-10.782;2022-08-01T06:58:02;24.20;99.90
56298;DHT22;42208;6.376;-10.782;2022-08-01T07:00:30;24.20;99.90
56298;DHT22;42208;6.376;-10.782;2022-08-01T07:02:59;24.20;99.90
56298;DHT22;42208;6.376;-10.782;2022-08-01T07:05:27;24.20;99.90
56298;DHT22;42208;6.376;-10.782;2022-08-01T07:07:55;24.30;99.90
56298;DHT22;42208;6.376;-10.782;2022-08-01T07:10:23;24.30;99.90
56298;DHT22;42208;6.376;-10.782;2022-08-01T07:12:52;24.30;99.90
56298;DHT22;42208;6.376;-10.782;2022-08-01T07:15:20;24.30;99.90
56298;DHT22;42208;6.376;-10.782;2022-08-01T07:17:48;24.40;99.90
56298;DHT22;42208;6.376;-10.782;2022-08-01T07:20:17;24.40;99.90
56298;DHT22;42208;6.376;-10.782;2022-08-01T07:22:45;24.40;99.90
56298;DHT22;42208;6.376;-10.782;2022-08-01T07:25:15;24.40;99.90
56298;DHT22;42208;6.376;-10.782;2022-08-01T07:27:43;24.50;99.90
56298;DHT22;42208;6.376;-10.782;2022-08-01T07:30:11;24.50;99.90
56298;DHT22;42208;6.376;-10.782;2022-08-01T07:32:40;24.50;99.90
56298;DHT22;42208;6.376;-10.782;2022-08-01T07:35:08;24.40;99.90
56298;DHT22;42208;6.376;-10.782;2022-08-01T07:37:37;24.50;99.90
56298;DHT22;42208;6.376;-10.782;2022-08-01T07:40:16;24.50;99.90
56298;DHT22;42208;6.376;-10.782;2022-08-01T07:42:45;24.50;99.90
56298;DHT22;42208;6.376;-10.782;2022-08-01T07:45:14;24.50;99.90
56298;DHT22;42208;6.376;-10.782;2022-08-01T07:47:43;24.50;99.90
56298;DHT22;42208;6.376;-10.782;2022-08-01T07:50:11;24.50;99.90
56298;DHT22;42208;6.376;-10.782;2022-08-01T07:52:39;24.60;99.90
56298;DHT22;42208;6.376;-10.782;2022-08-01T07:55:09;24.50;99.90
56298;DHT22;42208;6.376;-10.782;2022-08-01T07:57:49;24.50;99.90
56298;DHT22;42208;6.376;-10.782;2022-08-01T08:00:17;24.60;99.90
56298;DHT22;42208;6.376;-10.782;2022-08-01T08:02:46;24.50;99.90
56298;DHT22;42208;6.376;-10.782;2022-08-01T08:05:14;24.50;99.90
56298;DHT22;42208;6.376;-10.782;2022-08-01T08:08:06;24.40;99.90
56298;DHT22;42208;6.376;-10.782;2022-08-01T08:10:35;24.40;99.90
56298;DHT22;42208;6.376;-10.782;2022-08-01T08:13:03;24.40;99.90
56298;DHT22;42208;6.376;-10.782;2022-08-01T08:15:32;24.50;99.90
56298;DHT22;42208;6.376;-10.782;2022-08-01T08:18:00;24.50;99.90
56298;DHT22;42208;6.376;-10.782;2022-08-01T08:20:28;24.50;99.90
56298;DHT22;42208;6.376;-10.782;2022-08-01T08:22:57;24.50;99.90
56298;DHT22;42208;6.376;-10.782;2022-08-01T08:25:26;24.40;99.90
56298;DHT22;42208;6.376;-10.782;2022-08-01T08:27:54;24.50;99.90
56298;DHT22;42208;6.376;-10.782;2022-08-01T08:30:23;24.40;99.90
56298;DHT22;42208;6.376;-10.782;2022-08-01T08:32:51;24.40;99.90
56298;DHT22;42208;6.376;-10.782;2022-08-01T08:35:19;24.50;99.90
56298;DHT22;42208;6.376;-10.782;2022-08-01T08:38:07;24.50;99.90
56298;DHT22;42208;6.376;-10.782;2022-08-01T08:40:37;24.50;99.90
56298;DHT22;42208;6.376;-10.782;2022-08-01T08:43:06;24.60;99.90
56298;DHT22;42208;6.376;-10.782;2022-08-01T08:45:34;24.70;99.90
56298;DHT22;42208;6.376;-10.782;2022-08-01T08:48:23;24.70;99.90
56298;DHT22;42208;6.376;-10.782;2022-08-01T08:50:55;24.70;99.90
56298;DHT22;42208;6.376;-10.782;2022-08-01T08:53:26;24.60;99.90
56298;DHT22;42208;6.376;-10.782;2022-08-01T08:56:02;24.60;99.90
56298;DHT22;42208;6.376;-10.782;2022-08-01T08:58:31;24.60;99.90
56298;DHT22;42208;6.376;-10.782;2022-08-01T09:01:00;24.60;99.90
56298;DHT22;42208;6.376;-10.782;2022-08-01T09:03:28;24.60;99.90
56298;DHT22;42208;6.376;-10.782;2022-08-01T09:05:57;24.60;99.90
56298;DHT22;42208;6.376;-10.782;2022-08-01T09:08:25;24.70;99.90
56298;DHT22;42208;6.376;-10.782;2022-08-01T09:10:54;24.70;99.90
56298;DHT22;42208;6.376;-10.782;2022-08-01T09:13:23;24.80;99.90
56298;DHT22;42208;6.376;-10.782;2022-08-01T09:15:52;24.80;99.90
56298;DHT22;42208;6.376;-10.782;2022-08-01T09:18:36;24.80;99.90
56298;DHT22;42208;6.376;-10.782;2022-08-01T09:21:19;24.70;99.90
56298;DHT22;42208;6.376;-10.782;2022-08-01T09:23:51;24.70;99.90
56298;DHT22;42208;6.376;-10.782;2022-08-01T09:26:29;24.60;99.90
56298;DHT22;42208;6.376;-10.782;2022-08-01T09:29:00;24.70;99.90
56298;DHT22;42208;6.376;-10.782;2022-08-01T09:31:40;24.70;99.90
56298;DHT22;42208;6.376;-10.782;2022-08-01T09:34:15;24.70;99.90
56298;DHT22;42208;6.376;-10.782;2022-08-01T09:39:15;24.70;99.90
56298;DHT22;42208;6.376;-10.782;2022-08-01T09:41:44;24.70;99.90
56298;DHT22;42208;6.376;-10.782;2022-08-01T09:44:12;24.60;99.90
56298;DHT22;42208;6.376;-10.782;2022-08-01T09:46:53;24.60;99.90
56298;DHT22;42208;6.376;-10.782;2022-08-01T09:49:30;24.60;99.90
56298;DHT22;42208;6.376;-10.782;2022-08-01T09:52:22;24.50;99.90
56298;DHT22;42208;6.376;-10.782;2022-08-01T09:55:04;24.60;99.90
56298;DHT22;42208;6.376;-10.782;2022-08-01T09:57:33;24.60;99.90
56298;DHT22;42208;6.376;-10.782;2022-08-01T10:00:04;24.60;99.90
56298;DHT22;42208;6.376;-10.782;2022-08-01T10:02:40;24.60;99.90
56298;DHT22;42208;6.376;-10.782;2022-08-01T10:05:10;24.60;99.90
56298;DHT22;42208;6.376;-10.782;2022-08-01T10:08:02;24.50;99.90
56298;DHT22;42208;6.376;-10.782;2022-08-01T10:10:34;24.60;99.90
56298;DHT22;42208;6.376;-10.782;2022-08-01T10:13:04;24.60;99.90
56298;DHT22;42208;6.376;-10.782;2022-08-01T10:15:35;24.70;99.90
56298;DHT22;42208;6.376;-10.782;2022-08-01T10:18:07;24.60;99.90
56298;DHT22;42208;6.376;-10.782;2022-08-01T10:20:53;24.70;99.90
56298;DHT22;42208;6.376;-10.782;2022-08-01T10:23:27;24.70;99.90
56298;DHT22;42208;6.376;-10.782;2022-08-01T10:26:08;24.80;99.90
56298;DHT22;42208;6.376;-10.782;2022-08-01T10:28:38;24.80;99.90
56298;DHT22;42208;6.376;-10.782;2022-08-01T10:31:07;24.80;99.90
56298;DHT22;42208;6.376;-10.782;2022-08-01T10:33:41;24.80;99.90
56298;DHT22;42208;6.376;-10.782;2022-08-01T10:36:21;24.90;99.90
56298;DHT22;42208;6.376;-10.782;2022-08-01T10:38:53;25.00;99.90
56298;DHT22;42208;6.376;-10.782;2022-08-01T10:41:22;25.00;99.90
56298;DHT22;42208;6.376;-10.782;2022-08-01T10:43:53;25.00;99.90
56298;DHT22;42208;6.376;-10.782;2022-08-01T10:46:22;25.10;99.90
56298;DHT22;42208;6.376;-10.782;2022-08-01T10:48:57;25.10;99.90
56298;DHT22;42208;6.376;-10.782;2022-08-01T10:51:27;25.10;99.90
56298;DHT22;42208;6.376;-10.782;2022-08-01T10:54:16;25.10;99.90
56298;DHT22;42208;6.376;-10.782;2022-08-01T10:56:46;25.00;99.90
56298;DHT22;42208;6.376;-10.782;2022-08-01T10:59:23;25.00;99.90
56298;DHT22;42208;6.376;-10.782;2022-08-01T11:02:11;25.00;99.90
56298;DHT22;42208;6.376;-10.782;2022-08-01T11:05:10;25.00;99.90
56298;DHT22;42208;6.376;-10.782;2022-08-01T11:07:48;25.00;99.90
56298;DHT22;42208;6.376;-10.782;2022-08-01T11:10:40;25.10;99.90
56298;DHT22;42208;6.376;-10.782;2022-08-01T11:13:10;25.20;99.90
56298;DHT22;42208;6.376;-10.782;2022-08-01T11:15:41;25.20;99.90
56298;DHT22;42208;6.376;-10.782;2022-08-01T11:18:30;25.20;99.90
56298;DHT22;42208;6.376;-10.782;2022-08-01T11:21:00;25.30;99.90
56298;DHT22;42208;6.376;-10.782;2022-08-01T11:23:50;25.40;99.90
56298;DHT22;42208;6.376;-10.782;2022-08-01T11:26:19;25.40;99.90
56298;DHT22;42208;6.376;-10.782;2022-08-01T11:29:14;25.50;99.90
56298;DHT22;42208;6.376;-10.782;2022-08-01T11:31:49;25.50;99.90
56298;DHT22;42208;6.376;-10.782;2022-08-01T11:34:17;25.50;99.90
56298;DHT22;42208;6.376;-10.782;2022-08-01T11:36:46;25.50;99.90
56298;DHT22;42208;6.376;-10.782;2022-08-01T11:39:30;25.50;99.90
56298;DHT22;42208;6.376;-10.782;2022-08-01T11:42:18;25.50;99.90
56298;DHT22;42208;6.376;-10.782;2022-08-01T11:44:50;25.60;99.90
56298;DHT22;42208;6.376;-10.782;2022-08-01T11:47:45;25.70;99.90
56298;DHT22;42208;6.376;-10.782;2022-08-01T11:53:02;25.80;99.90
56298;DHT22;42208;6.376;-10.782;2022-08-01T11:55:31;25.80;99.90
56298;DHT22;42208;6.376;-10.782;2022-08-01T11:58:05;25.70;99.90
56298;DHT22;42208;6.376;-10.782;2022-08-01T12:00:56;25.70;99.90
56298;DHT22;42208;6.376;-10.782;2022-08-01T12:03:30;25.80;99.90
56298;DHT22;42208;6.376;-10.782;2022-08-01T12:06:00;25.90;99.90
56298;DHT22;42208;6.376;-10.782;2022-08-01T12:08:31;25.90;99.90
56298;DHT22;42208;6.376;-10.782;2022-08-01T12:11:01;25.90;99.90
56298;DHT22;42208;6.376;-10.782;2022-08-01T12:13:41;25.90;99.90
56298;DHT22;42208;6.376;-10.782;2022-08-01T12:16:10;25.90;99.90
56298;DHT22;42208;6.376;-10.782;2022-08-01T12:18:41;25.90;99.90
56298;DHT22;42208;6.376;-10.782;2022-08-01T12:21:10;25.90;99.90
56298;DHT22;42208;6.376;-10.782;2022-08-01T12:23:38;25.90;99.90
56298;DHT22;42208;6.376;-10.782;2022-08-01T12:26:06;26.00;99.90
56298;DHT22;42208;6.376;-10.782;2022-08-01T12:28:54;25.90;99.90
56298;DHT22;42208;6.376;-10.782;2022-08-01T12:31:33;25.90;99.90
56298;DHT22;42208;6.376;-10.782;2022-08-01T12:34:28;25.90;99.90
56298;DHT22;42208;6.376;-10.782;2022-08-01T12:36:59;25.80;99.90
56298;DHT22;42208;6.376;-10.782;2022-08-01T12:39:32;25.80;99.90
56298;DHT22;42208;6.376;-10.782;2022-08-01T12:42:01;25.60;99.90
56298;DHT22;42208;6.376;-10.782;2022-08-01T12:44:32;25.60;99.90
56298;DHT22;42208;6.376;-10.782;2022-08-01T12:47:02;25.40;99.90
56298;DHT22;42208;6.376;-10.782;2022-08-01T12:49:35;25.40;99.90
56298;DHT22;42208;6.376;-10.782;2022-08-01T12:52:05;25.40;99.90
56298;DHT22;42208;6.376;-10.782;2022-08-01T12:57:44;25.40;99.90
56298;DHT22;42208;6.376;-10.782;2022-08-01T13:00:19;25.40;99.90
56298;DHT22;42208;6.376;-10.782;2022-08-01T13:02:49;25.30;99.90
56298;DHT22;42208;6.376;-10.782;2022-08-01T13:05:17;25.30;99.90
56298;DHT22;42208;6.376;-10.782;2022-08-01T13:07:48;25.40;99.90
56298;DHT22;42208;6.376;-10.782;2022-08-01T13:10:29;25.40;99.90
56298;DHT22;42208;6.376;-10.782;2022-08-01T13:12:58;25.40;99.90
56298;DHT22;42208;6.376;-10.782;2022-08-01T13:15:32;25.50;99.90
56298;DHT22;42208;6.376;-10.782;2022-08-01T13:18:25;25.40;99.90
56298;DHT22;42208;6.376;-10.782;2022-08-01T13:21:23;25.40;99.90
56298;DHT22;42208;6.376;-10.782;2022-08-01T13:24:06;25.40;99.90
56298;DHT22;42208;6.376;-10.782;2022-08-01T13:32:17;25.50;99.90
56298;DHT22;42208;6.376;-10.782;2022-08-01T13:35:04;25.50;99.90
56298;DHT22;42208;6.376;-10.782;2022-08-01T13:37:35;25.40;99.90
56298;DHT22;42208;6.376;-10.782;2022-08-01T13:40:09;25.50;99.90
56298;DHT22;42208;6.376;-10.782;2022-08-01T13:42:38;25.60;99.90
56298;DHT22;42208;6.376;-10.782;2022-08-01T13:45:07;25.60;99.90
56298;DHT22;42208;6.376;-10.782;2022-08-01T13:47:42;25.60;99.90
56298;DHT22;42208;6.376;-10.782;2022-08-01T13:50:31;25.60;99.90
56298;DHT22;42208;6.376;-10.782;2022-08-01T13:53:00;25.70;99.90
56298;DHT22;42208;6.376;-10.782;2022-08-01T13:55:28;25.80;99.90
56298;DHT22;42208;6.376;-10.782;2022-08-01T13:58:01;25.90;99.90
56298;DHT22;42208;6.376;-10.782;2022-08-01T14:00:30;26.00;99.90
56298;DHT22;42208;6.376;-10.782;2022-08-01T14:02:59;26.10;99.90
56298;DHT22;42208;6.376;-10.782;2022-08-01T14:05:27;26.10;99.90
56298;DHT22;42208;6.376;-10.782;2022-08-01T14:07:55;26.10;99.90
56298;DHT22;42208;6.376;-10.782;2022-08-01T14:10:24;26.10;99.90
56298;DHT22;42208;6.376;-10.782;2022-08-01T14:12:54;26.00;99.90
56298;DHT22;42208;6.376;-10.782;2022-08-01T14:15:23;25.80;99.90
56298;DHT22;42208;6.376;-10.782;2022-08-01T14:18:06;25.70;99.90
56298;DHT22;42208;6.376;-10.782;2022-08-01T14:20:37;25.60;99.90
56298;DHT22;42208;6.376;-10.782;2022-08-01T14:23:05;25.50;99.90
56298;DHT22;42208;6.376;-10.782;2022-08-01T14:25:40;25.50;99.90
56298;DHT22;42208;6.376;-10.782;2022-08-01T14:28:28;25.40;99.90
56298;DHT22;42208;6.376;-10.782;2022-08-01T14:30:58;25.50;99.90
56298;DHT22;42208;6.376;-10.782;2022-08-01T14:33:26;25.60;99.90
56298;DHT22;42208;6.376;-10.782;2022-08-01T14:35:55;25.70;99.90
56298;DHT22;42208;6.376;-10.782;2022-08-01T14:38:43;25.70;99.90
56298;DHT22;42208;6.376;-10.782;2022-08-01T14:41:14;25.80;99.90
56298;DHT22;42208;6.376;-10.782;2022-08-01T14:43:43;25.90;99.90
56298;DHT22;42208;6.376;-10.782;2022-08-01T14:46:11;25.90;99.90
56298;DHT22;42208;6.376;-10.782;2022-08-01T14:48:40;25.90;99.90
56298;DHT22;42208;6.376;-10.782;2022-08-01T14:51:09;25.90;99.90
56298;DHT22;42208;6.376;-10.782;2022-08-01T14:53:38;25.90;99.90
56298;DHT22;42208;6.376;-10.782;2022-08-01T14:56:13;26.00;99.90
56298;DHT22;42208;6.376;-10.782;2022-08-01T14:58:41;26.00;99.90
56298;DHT22;42208;6.376;-10.782;2022-08-01T15:01:10;26.10;99.90
56298;DHT22;42208;6.376;-10.782;2022-08-01T15:03:38;26.10;99.90
56298;DHT22;42208;6.376;-10.782;2022-08-01T15:06:06;26.20;99.90
56298;DHT22;42208;6.376;-10.782;2022-08-01T15:08:35;26.10;99.90
56298;DHT22;42208;6.376;-10.782;2022-08-01T15:11:03;26.10;99.90
56298;DHT22;42208;6.376;-10.782;2022-08-01T15:13:32;26.10;99.90
56298;DHT22;42208;6.376;-10.782;2022-08-01T15:16:06;26.10;99.90
56298;DHT22;42208;6.376;-10.782;2022-08-01T15:18:38;26.10;99.90
56298;DHT22;42208;6.376;-10.782;2022-08-01T15:21:06;26.10;99.90
56298;DHT22;42208;6.376;-10.782;2022-08-01T15:23:40;26.10;99.90
56298;DHT22;42208;6.376;-10.782;2022-08-01T15:26:09;26.20;99.90
56298;DHT22;42208;6.376;-10.782;2022-08-01T15:28:37;26.30;99.90
56298;DHT22;42208;6.376;-10.782;2022-08-01T15:31:05;26.30;99.90
56298;DHT22;42208;6.376;-10.782;2022-08-01T15:33:40;26.40;99.90
56298;DHT22;42208;6.376;-10.782;2022-08-01T15:36:08;26.50;99.90
56298;DHT22;42208;6.376;-10.782;2022-08-01T15:38:41;26.80;99.90
56298;DHT22;42208;6.376;-10.782;2022-08-01T15:41:10;27.00;99.90
56298;DHT22;42208;6.376;-10.782;2022-08-01T15:43:38;27.10;99.90
56298;DHT22;42208;6.376;-10.782;2022-08-01T15:46:11;27.10;99.90
56298;DHT22;42208;6.376;-10.782;2022-08-01T15:48:40;27.10;99.90
56298;DHT22;42208;6.376;-10.782;2022-08-01T15:51:08;26.90;99.90
56298;DHT22;42208;6.376;-10.782;2022-08-01T15:53:37;26.80;99.90
56298;DHT22;42208;6.376;-10.782;2022-08-01T15:56:05;26.70;99.90
56298;DHT22;42208;6.376;-10.782;2022-08-01T15:58:34;26.50;99.90
56298;DHT22;42208;6.376;-10.782;2022-08-01T16:01:02;26.50;99.90